createdAt,value
2019-01-24T00:01:47.789Z,82.50
2019-01-24T00:04:18.140Z,82.80
2019-01-24T00:06:48.447Z,82.70
2019-01-24T00:09:18.788Z,82.80
2019-01-24T00:11:49.131Z,82.90
2019-01-24T00:14:19.542Z,83.20
2019-01-24T00:16:49.907Z,82.40
2019-01-24T00:19:20.289Z,82.50
2019-01-24T00:21:50.638Z,82.10
2019-01-24T00:24:21.019Z,82.30
2019-01-24T00:26:51.429Z,82.30
2019-01-24T00:29:22.812Z,83.00
2019-01-24T00:31:53.179Z,83.40
2019-01-24T00:34:23.655Z,82.80
2019-01-24T00:36:53.943Z,82.60
2019-01-24T00:39:24.320Z,82.80
2019-01-24T00:41:54.688Z,82.30
2019-01-24T00:44:25.107Z,82.30
2019-01-24T00:46:55.413Z,82.20
2019-01-24T00:49:25.764Z,81.90
2019-01-24T00:51:56.173Z,82.20
2019-01-24T00:54:26.491Z,81.90
2019-01-24T00:56:56.840Z,81.40
2019-01-24T00:59:27.960Z,81.60
2019-01-24T01:01:58.359Z,82.00
2019-01-24T01:04:29.814Z,82.30
2019-01-24T01:07:00.446Z,82.20
2019-01-24T01:09:30.736Z,82.00
2019-01-24T01:12:01.109Z,82.30
2019-01-24T01:14:31.438Z,82.00
2019-01-24T01:17:01.820Z,81.40
2019-01-24T01:19:32.128Z,81.60
2019-01-24T01:22:02.453Z,81.40
2019-01-24T01:24:32.846Z,81.00
2019-01-24T01:27:03.263Z,80.50
2019-01-24T01:29:33.730Z,80.80
2019-01-24T01:32:04.477Z,80.90
2019-01-24T01:34:36.366Z,81.10
2019-01-24T01:37:06.840Z,81.10
2019-01-24T01:39:37.160Z,81.10
2019-01-24T01:42:07.501Z,81.30
2019-01-24T01:44:37.792Z,81.80
2019-01-24T01:47:08.096Z,81.40
2019-01-24T01:49:38.424Z,81.20
2019-01-24T01:52:08.789Z,80.20
2019-01-24T01:54:39.124Z,80.80
2019-01-24T01:57:10.498Z,81.20
2019-01-24T01:59:40.850Z,81.30
2019-01-24T02:02:11.140Z,80.80
2019-01-24T02:04:42.975Z,80.50
2019-01-24T02:07:13.468Z,80.30
2019-01-24T02:09:43.871Z,80.30
2019-01-24T02:12:14.173Z,80.20
2019-01-24T02:14:44.522Z,80.50
2019-01-24T02:17:14.941Z,80.20
2019-01-24T02:19:45.281Z,80.40
2019-01-24T02:22:15.599Z,80.20
2019-01-24T02:24:45.934Z,81.00
2019-01-24T02:27:16.258Z,82.00
2019-01-24T02:29:46.649Z,81.90
2019-01-24T02:32:17.000Z,81.40
2019-01-24T02:34:49.744Z,81.70
2019-01-24T02:37:19.268Z,82.00
2019-01-24T02:39:49.614Z,81.70
2019-01-24T02:42:19.932Z,81.60
2019-01-24T02:44:50.273Z,81.80
2019-01-24T02:47:20.615Z,82.30
2019-01-24T02:49:50.960Z,82.10
2019-01-24T02:52:21.340Z,82.50
2019-01-24T02:54:51.677Z,82.90
2019-01-24T02:57:21.986Z,82.80
2019-01-24T02:59:52.305Z,83.10
2019-01-24T03:02:23.741Z,83.30
2019-01-24T03:04:57.133Z,83.20
2019-01-24T03:07:26.034Z,82.60
2019-01-24T03:09:56.493Z,82.50
2019-01-24T03:12:26.979Z,82.30
2019-01-24T03:14:57.332Z,82.60
2019-01-24T03:17:27.732Z,82.30
2019-01-24T03:19:58.063Z,82.60
2019-01-24T03:22:28.401Z,82.80
2019-01-24T03:24:58.746Z,82.80
2019-01-24T03:27:29.041Z,83.20
2019-01-24T03:30:00.056Z,82.90
2019-01-24T03:32:30.370Z,83.40
2019-01-24T03:35:04.290Z,83.30
2019-01-24T03:37:32.624Z,83.10
2019-01-24T03:40:02.933Z,83.70
2019-01-24T03:42:33.288Z,83.80
2019-01-24T03:45:03.802Z,83.70
2019-01-24T03:47:34.132Z,84.30
2019-01-24T03:50:05.360Z,84.60
2019-01-24T03:52:36.371Z,84.20
2019-01-24T03:55:09.456Z,84.20
2019-01-24T03:57:39.793Z,84.40
2019-01-24T04:00:17.620Z,84.20
2019-01-24T04:02:48.016Z,84.10
2019-01-24T04:05:19.490Z,84.30
2019-01-24T04:07:49.880Z,84.00
2019-01-24T04:10:21.470Z,83.80
2019-01-24T04:12:51.842Z,83.70
2019-01-24T04:15:26.460Z,83.40
2019-01-24T04:17:56.764Z,83.80
2019-01-24T04:20:27.124Z,84.40
2019-01-24T04:22:57.488Z,84.80
2019-01-24T04:25:27.809Z,84.40
2019-01-24T04:27:58.148Z,84.00
2019-01-24T04:30:28.541Z,83.50
2019-01-24T04:32:58.840Z,82.70
2019-01-24T04:35:29.196Z,82.30
2019-01-24T04:37:59.517Z,82.20
2019-01-24T04:40:29.868Z,82.30
2019-01-24T04:43:01.800Z,82.50
2019-01-24T04:45:32.140Z,82.30
2019-01-24T04:48:02.496Z,82.60
2019-01-24T04:50:32.853Z,81.80
2019-01-24T04:53:03.153Z,82.00
2019-01-24T04:55:33.541Z,81.40
2019-01-24T04:58:03.894Z,81.80
2019-01-24T05:00:34.892Z,81.10
2019-01-24T05:03:05.423Z,81.50
2019-01-24T05:05:35.790Z,82.10
2019-01-24T05:08:06.154Z,82.60
2019-01-24T05:10:36.469Z,82.80
2019-01-24T05:13:06.788Z,82.80
2019-01-24T05:15:37.113Z,83.40
2019-01-24T05:18:07.456Z,83.60
2019-01-24T05:20:37.762Z,84.10
2019-01-24T05:23:08.064Z,84.00
2019-01-24T05:25:38.448Z,84.20
2019-01-24T05:28:08.788Z,84.70
2019-01-24T05:30:40.652Z,84.20
2019-01-24T05:33:11.114Z,83.70
2019-01-24T05:35:41.451Z,83.50
2019-01-24T05:38:11.942Z,83.50
2019-01-24T05:40:42.280Z,83.00
2019-01-24T05:43:12.624Z,83.20
2019-01-24T05:45:42.930Z,82.50
2019-01-24T05:48:13.280Z,82.60
2019-01-24T05:50:43.624Z,82.50
2019-01-24T05:53:13.933Z,82.30
2019-01-24T05:55:44.294Z,82.20
2019-01-24T05:58:14.601Z,82.20
2019-01-24T06:00:46.364Z,82.30
2019-01-24T06:03:16.677Z,82.30
2019-01-24T06:05:47.010Z,83.00
2019-01-24T06:08:17.334Z,82.60
2019-01-24T06:10:47.676Z,82.50
2019-01-24T06:13:17.968Z,82.60
2019-01-24T06:15:48.304Z,82.60
2019-01-24T06:18:18.650Z,82.70
2019-01-24T06:20:50.094Z,82.80
2019-01-24T06:23:20.451Z,82.20
2019-01-24T06:25:50.780Z,82.00
2019-01-24T06:28:21.132Z,81.90
2019-01-24T06:30:52.376Z,80.80
2019-01-24T06:33:24.227Z,81.00
2019-01-24T06:35:55.155Z,80.80
2019-01-24T06:38:25.464Z,80.30
2019-01-24T06:40:55.800Z,80.00
2019-01-24T06:43:26.104Z,80.40
2019-01-24T06:45:56.461Z,81.40
2019-01-24T06:48:26.776Z,82.20
2019-01-24T06:50:57.095Z,82.30
2019-01-24T06:53:27.444Z,83.30
2019-01-24T06:55:57.800Z,83.10
2019-01-24T06:58:28.100Z,82.90
2019-01-24T07:00:58.452Z,83.10
2019-01-24T07:03:30.046Z,82.90
2019-01-24T07:06:00.384Z,82.80
2019-01-24T07:08:30.824Z,82.90
2019-01-24T07:11:01.200Z,81.90
2019-01-24T07:13:31.566Z,81.10
2019-01-24T07:16:01.936Z,80.80
2019-01-24T07:18:32.266Z,81.00
2019-01-24T07:21:02.660Z,80.50
2019-01-24T07:23:33.968Z,80.70
2019-01-24T07:26:04.380Z,80.40
2019-01-24T07:28:34.736Z,80.20
2019-01-24T07:31:05.028Z,80.40
2019-01-24T07:33:36.117Z,80.20
2019-01-24T07:36:06.888Z,80.70
2019-01-24T07:38:37.266Z,81.40
2019-01-24T07:41:07.591Z,81.40
2019-01-24T07:43:38.020Z,80.50
2019-01-24T07:46:08.820Z,80.30
2019-01-24T07:48:39.208Z,80.30
2019-01-24T07:51:09.616Z,80.50
2019-01-24T07:53:40.013Z,80.80
2019-01-24T07:56:10.429Z,81.40
2019-01-24T07:58:40.760Z,82.00
2019-01-24T08:01:11.140Z,80.40
2019-01-24T08:03:43.030Z,80.40
2019-01-24T08:06:13.438Z,80.70
2019-01-24T08:08:43.807Z,81.10
2019-01-24T08:11:14.221Z,81.10
2019-01-24T08:13:44.567Z,82.20
2019-01-24T08:16:14.929Z,82.50
2019-01-24T08:18:45.400Z,82.90
2019-01-24T08:21:15.792Z,82.20
2019-01-24T08:23:46.124Z,81.60
2019-01-24T08:26:16.596Z,81.40
2019-01-24T08:28:46.976Z,81.40
2019-01-24T08:31:17.349Z,81.10
2019-01-24T08:33:48.987Z,80.90
2019-01-24T08:36:19.476Z,79.80
2019-01-24T08:38:49.833Z,79.50
2019-01-24T08:41:20.311Z,80.20
2019-01-24T08:43:59.023Z,80.00
2019-01-24T08:46:29.411Z,80.50
2019-01-24T08:48:59.818Z,80.10
2019-01-24T08:51:30.211Z,80.40
2019-01-24T08:54:00.575Z,79.90
2019-01-24T08:56:30.933Z,79.40
2019-01-24T08:59:01.245Z,79.70
2019-01-24T09:01:31.663Z,79.50
2019-01-24T09:04:03.213Z,79.90
2019-01-24T09:06:33.629Z,78.90
2019-01-24T09:09:05.697Z,79.10
2019-01-24T09:11:36.053Z,77.80
2019-01-24T09:14:06.398Z,78.00
2019-01-24T09:16:36.838Z,78.30
2019-01-24T09:19:07.300Z,78.40
2019-01-24T09:21:37.720Z,78.20
2019-01-24T09:24:08.125Z,76.70
2019-01-24T09:26:38.557Z,76.80
2019-01-24T09:29:08.917Z,76.20
2019-01-24T09:31:39.283Z,75.90
2019-01-24T09:34:10.916Z,75.60
2019-01-24T09:36:41.699Z,75.80
2019-01-24T09:39:12.025Z,76.10
2019-01-24T09:41:42.347Z,76.20
2019-01-24T09:44:12.691Z,77.10
2019-01-24T09:46:43.119Z,77.60
2019-01-24T09:49:13.513Z,77.40
2019-01-24T09:51:43.920Z,76.20
2019-01-24T09:54:14.237Z,75.20
2019-01-24T09:56:44.669Z,74.30
2019-01-24T09:59:15.094Z,74.40
2019-01-24T10:01:45.545Z,74.60
2019-01-24T10:04:16.356Z,74.00
2019-01-24T10:06:46.821Z,73.30
2019-01-24T10:09:17.291Z,72.60
2019-01-24T10:11:47.727Z,72.80
2019-01-24T10:14:18.049Z,74.00
2019-01-24T10:16:48.416Z,73.50
2019-01-24T10:19:18.725Z,73.40
2019-01-24T10:21:49.040Z,73.70
2019-01-24T10:24:19.377Z,73.80
2019-01-24T10:26:49.819Z,74.20
2019-01-24T10:29:20.160Z,74.20
2019-01-24T10:31:50.553Z,73.40
2019-01-24T10:34:22.054Z,73.70
2019-01-24T10:36:52.493Z,71.10
2019-01-24T10:39:22.834Z,70.60
2019-01-24T10:41:53.221Z,70.50
2019-01-24T10:44:23.569Z,69.60
2019-01-24T10:46:54.046Z,69.10
2019-01-24T10:49:24.396Z,68.00
2019-01-24T10:51:54.776Z,66.50
2019-01-24T10:54:38.803Z,65.90
2019-01-24T10:57:10.235Z,65.70
2019-01-24T10:59:40.553Z,65.60
2019-01-24T11:02:11.921Z,65.10
2019-01-24T11:04:42.977Z,65.10
2019-01-24T11:07:13.389Z,64.60
2019-01-24T11:09:43.777Z,63.10
2019-01-24T11:12:14.153Z,62.50
2019-01-24T11:14:44.601Z,61.70
2019-01-24T11:17:14.931Z,62.50
2019-01-24T11:19:45.225Z,62.30
2019-01-24T11:22:15.549Z,61.80
2019-01-24T11:24:45.948Z,62.70
2019-01-24T11:27:16.297Z,62.60
2019-01-24T11:29:46.632Z,61.80
2019-01-24T11:32:16.973Z,61.70
2019-01-24T11:34:48.692Z,62.40
2019-01-24T11:37:19.078Z,62.80
2019-01-24T11:39:49.401Z,62.50
2019-01-24T11:42:19.737Z,63.70
2019-01-24T11:44:50.064Z,62.80
2019-01-24T11:47:20.433Z,62.50
2019-01-24T11:49:50.744Z,61.60
2019-01-24T11:52:21.102Z,61.20
2019-01-24T11:54:51.427Z,61.20
2019-01-24T11:57:21.759Z,61.20
2019-01-24T11:59:52.056Z,61.90
2019-01-24T12:02:22.461Z,62.60
2019-01-24T12:04:53.462Z,62.50
2019-01-24T12:07:23.890Z,62.40
2019-01-24T12:09:54.367Z,62.20
2019-01-24T12:12:24.940Z,62.20
2019-01-24T12:14:55.342Z,62.20
2019-01-24T12:17:25.695Z,62.80
2019-01-24T12:19:56.076Z,62.90
2019-01-24T12:22:26.514Z,62.50
2019-01-24T12:24:56.906Z,62.60
2019-01-24T12:27:27.427Z,63.10
2019-01-24T12:29:57.781Z,63.40
2019-01-24T12:32:28.121Z,63.70
2019-01-24T12:34:59.031Z,64.10
2019-01-24T12:37:29.325Z,64.50
2019-01-24T12:39:59.979Z,64.40
2019-01-24T12:42:30.459Z,64.10
2019-01-24T12:45:01.178Z,64.00
2019-01-24T12:47:31.643Z,64.00
2019-01-24T12:50:04.250Z,64.20
2019-01-24T12:52:34.598Z,64.40
2019-01-24T12:55:05.552Z,64.60
2019-01-24T12:57:36.149Z,64.10
2019-01-24T13:00:10.276Z,63.50
2019-01-24T13:02:40.636Z,63.90
2019-01-24T13:05:12.522Z,64.40
2019-01-24T13:07:43.076Z,64.20
2019-01-24T13:10:16.093Z,63.70
2019-01-24T13:12:46.645Z,63.70
2019-01-24T13:15:17.595Z,64.10
2019-01-24T13:17:47.988Z,64.40
2019-01-24T13:20:18.712Z,65.00
2019-01-24T13:22:49.187Z,65.60
2019-01-24T13:25:52.856Z,65.70
2019-01-24T13:28:23.243Z,65.40
2019-01-24T13:30:54.639Z,65.00
2019-01-24T13:33:25.141Z,65.00
2019-01-24T13:35:56.921Z,65.00
2019-01-24T13:38:27.333Z,65.90
2019-01-24T13:40:57.633Z,65.60
2019-01-24T13:43:28.191Z,65.10
2019-01-24T13:45:58.587Z,64.70
2019-01-24T13:48:29.055Z,64.20
2019-01-24T13:50:59.425Z,64.10
2019-01-24T13:53:29.820Z,64.00
2019-01-24T13:56:00.155Z,64.20
2019-01-24T13:58:30.569Z,65.10
2019-01-24T14:01:00.897Z,65.30
2019-01-24T14:03:44.771Z,65.40
2019-01-24T14:06:16.355Z,65.40
2019-01-24T14:08:46.869Z,65.30
2019-01-24T14:11:18.252Z,65.30
2019-01-24T14:13:48.669Z,65.30
2019-01-24T14:16:20.378Z,65.40
2019-01-24T14:18:50.757Z,66.50
2019-01-24T14:21:25.361Z,65.80
2019-01-24T14:23:55.883Z,66.10
2019-01-24T14:26:26.336Z,66.30
2019-01-24T14:28:57.767Z,65.90
2019-01-24T14:31:28.105Z,66.20
2019-01-24T14:34:01.153Z,66.20
2019-01-24T14:36:31.566Z,66.80
2019-01-24T14:39:02.046Z,67.50
2019-01-24T14:41:35.389Z,68.10
2019-01-24T14:44:05.983Z,68.40
2019-01-24T14:46:36.681Z,68.20
2019-01-24T14:49:07.118Z,68.40
2019-01-24T14:51:37.477Z,68.50
2019-01-24T14:54:07.980Z,69.10
2019-01-24T14:56:38.361Z,69.90
2019-01-24T14:59:08.705Z,70.30
2019-01-24T15:01:39.095Z,70.30
2019-01-24T15:04:09.799Z,70.60
2019-01-24T15:06:40.505Z,71.20
2019-01-24T15:09:13.256Z,71.20
2019-01-24T15:11:45.734Z,70.60
2019-01-24T15:14:16.072Z,70.70
2019-01-24T15:16:46.422Z,72.00
2019-01-24T15:19:16.801Z,71.80
2019-01-24T15:21:47.132Z,71.60
2019-01-24T15:24:17.477Z,71.70
2019-01-24T15:26:47.853Z,72.00
2019-01-24T15:29:18.179Z,72.10
2019-01-24T15:31:48.526Z,72.50
2019-01-24T15:34:18.881Z,73.00
2019-01-24T15:36:51.501Z,73.60
2019-01-24T15:39:21.805Z,72.80
2019-01-24T15:41:52.172Z,73.30
2019-01-24T15:44:22.550Z,74.30
2019-01-24T15:46:52.972Z,73.80
2019-01-24T15:49:23.305Z,73.60
2019-01-24T15:51:53.678Z,73.90
2019-01-24T15:54:24.073Z,73.60
2019-01-24T15:56:54.420Z,73.50
2019-01-24T15:59:24.753Z,73.90
2019-01-24T16:01:55.100Z,74.00
2019-01-24T16:04:25.483Z,74.00
2019-01-24T16:06:57.026Z,74.10
2019-01-24T16:09:27.507Z,74.50
2019-01-24T16:11:57.917Z,74.60
2019-01-24T16:14:28.396Z,74.50
2019-01-24T16:16:58.788Z,74.50
2019-01-24T16:19:29.166Z,74.60
2019-01-24T16:21:59.505Z,74.60
2019-01-24T16:24:30.176Z,74.80
2019-01-24T16:27:00.525Z,74.80
2019-01-24T16:29:31.260Z,74.80
2019-01-24T16:32:01.727Z,74.60
2019-01-24T16:34:32.111Z,74.70
2019-01-24T16:37:03.172Z,74.90
2019-01-24T16:39:33.532Z,75.30
2019-01-24T16:42:03.859Z,75.40
2019-01-24T16:44:34.300Z,75.20
2019-01-24T16:47:05.009Z,75.30
2019-01-24T16:49:35.415Z,75.40
2019-01-24T16:52:05.713Z,75.40
2019-01-24T16:54:36.074Z,75.00
2019-01-24T16:57:06.385Z,75.10
2019-01-24T16:59:36.753Z,75.30
2019-01-24T17:02:07.056Z,75.80
2019-01-24T17:04:37.725Z,75.40
2019-01-24T17:07:08.123Z,75.50
2019-01-24T17:09:38.538Z,76.70
2019-01-24T17:12:09.929Z,75.80
2019-01-24T17:14:40.340Z,76.20
2019-01-24T17:17:10.691Z,76.60
2019-01-24T17:19:41.032Z,76.70
2019-01-24T17:22:11.425Z,76.40
2019-01-24T17:24:41.911Z,76.20
2019-01-24T17:27:12.180Z,76.40
2019-01-24T17:29:43.423Z,76.10
2019-01-24T17:32:13.792Z,76.40
2019-01-24T17:34:44.166Z,76.90
2019-01-24T17:37:14.481Z,76.80
2019-01-24T17:39:44.890Z,76.90
2019-01-24T17:42:15.209Z,77.50
2019-01-24T17:44:45.564Z,77.80
2019-01-24T17:47:16.069Z,77.40
2019-01-24T17:49:46.396Z,77.20
2019-01-24T17:52:16.763Z,77.10
2019-01-24T17:54:47.105Z,77.50
2019-01-24T17:57:17.651Z,77.70
2019-01-24T17:59:48.061Z,77.30
2019-01-24T18:02:18.413Z,77.50
2019-01-24T18:04:48.839Z,78.00
2019-01-24T18:07:19.587Z,77.60
2019-01-24T18:09:49.954Z,78.50
2019-01-24T18:12:20.956Z,78.00
2019-01-24T18:14:51.281Z,77.90
2019-01-24T18:17:21.685Z,78.30
2019-01-24T18:19:52.005Z,78.40
2019-01-24T18:22:22.393Z,78.20
2019-01-24T18:24:52.726Z,78.20
2019-01-24T18:27:23.075Z,78.60
2019-01-24T18:29:53.436Z,78.60
2019-01-24T18:32:23.859Z,78.70
2019-01-24T18:34:54.239Z,78.50
2019-01-24T18:37:26.133Z,78.50
2019-01-24T18:39:56.479Z,78.20
2019-01-24T18:42:27.151Z,78.40
2019-01-24T18:44:57.531Z,78.80
2019-01-24T18:47:27.911Z,78.50
2019-01-24T18:49:58.306Z,78.50
2019-01-24T18:52:28.710Z,79.30
2019-01-24T18:54:59.153Z,78.90
2019-01-24T18:57:30.158Z,78.90
2019-01-24T19:00:00.517Z,79.40
2019-01-24T19:02:30.873Z,79.40
2019-01-24T19:05:01.383Z,79.50
2019-01-24T19:07:33.200Z,79.10
2019-01-24T19:10:03.730Z,79.50
2019-01-24T19:12:34.071Z,79.40
2019-01-24T19:15:05.777Z,79.70
2019-01-24T19:17:36.090Z,79.90
2019-01-24T19:20:07.695Z,79.80
2019-01-24T19:22:38.093Z,80.20
2019-01-24T19:25:09.649Z,80.50
2019-01-24T19:27:39.968Z,80.60
2019-01-24T19:30:15.901Z,80.50
2019-01-24T19:32:46.306Z,80.80
2019-01-24T19:35:16.714Z,80.40
2019-01-24T19:37:47.277Z,80.20
2019-01-24T19:40:24.566Z,80.20
2019-01-24T19:42:55.013Z,80.10
2019-01-24T19:45:25.970Z,80.30
2019-01-24T19:47:57.421Z,80.20
2019-01-24T19:50:28.662Z,79.70
2019-01-24T19:52:59.415Z,80.00
2019-01-24T19:55:30.727Z,79.80
2019-01-24T19:58:01.115Z,79.50
2019-01-24T20:00:32.507Z,79.20
2019-01-24T20:03:02.957Z,79.30
2019-01-24T20:05:33.406Z,79.80
2019-01-24T20:08:04.985Z,79.70
2019-01-24T20:10:39.633Z,80.20
2019-01-24T20:13:09.949Z,80.10
2019-01-24T20:15:40.341Z,80.70
2019-01-24T20:18:10.769Z,80.90
2019-01-24T20:20:41.104Z,80.70
2019-01-24T20:23:11.485Z,79.80
2019-01-24T20:25:41.832Z,79.70
2019-01-24T20:28:12.211Z,79.80
2019-01-24T20:30:42.599Z,80.00
2019-01-24T20:33:12.991Z,80.50
2019-01-24T20:35:55.699Z,81.00
2019-01-24T20:38:27.038Z,80.10
2019-01-24T20:40:57.461Z,79.60
2019-01-24T20:43:27.829Z,79.20
2019-01-24T20:45:58.173Z,78.60
2019-01-24T20:48:28.536Z,79.40
2019-01-24T20:50:58.880Z,78.90
2019-01-24T20:53:29.309Z,78.80
2019-01-24T20:56:01.495Z,78.80
2019-01-24T20:58:31.810Z,78.90
2019-01-24T21:01:02.243Z,78.80
2019-01-24T21:03:33.044Z,79.10
2019-01-24T21:06:03.415Z,78.30
2019-01-24T21:08:34.590Z,78.60
2019-01-24T21:11:05.093Z,78.60
2019-01-24T21:13:35.445Z,78.80
2019-01-24T21:16:05.875Z,78.40
2019-01-24T21:18:36.194Z,78.80
2019-01-24T21:21:06.599Z,79.30
2019-01-24T21:23:36.957Z,79.40
2019-01-24T21:26:07.382Z,79.50
2019-01-24T21:28:37.805Z,79.90
2019-01-24T21:31:08.301Z,79.80
2019-01-24T21:33:38.702Z,79.90
2019-01-24T21:36:09.186Z,79.20
2019-01-24T21:38:40.089Z,78.60
2019-01-24T21:41:12.739Z,78.20
2019-01-24T21:43:43.153Z,78.60
2019-01-24T21:46:13.514Z,79.20
2019-01-24T21:48:43.903Z,78.70
2019-01-24T21:51:14.277Z,78.30
2019-01-24T21:53:44.613Z,78.20
2019-01-24T21:56:15.189Z,77.90
2019-01-24T21:58:45.533Z,78.00
2019-01-24T22:01:15.878Z,77.90
2019-01-24T22:03:46.233Z,77.70
2019-01-24T22:06:16.613Z,77.40
2019-01-24T22:08:47.733Z,77.90
2019-01-24T22:11:18.165Z,78.20
2019-01-24T22:13:48.549Z,78.60
2019-01-24T22:16:18.915Z,78.40
2019-01-24T22:18:49.298Z,78.20
2019-01-24T22:21:19.589Z,78.50
2019-01-24T22:23:49.950Z,78.70
2019-01-24T22:26:20.422Z,79.00
2019-01-24T22:28:50.902Z,78.80
2019-01-24T22:31:21.240Z,78.50
2019-01-24T22:33:51.551Z,78.30
2019-01-24T22:36:21.923Z,78.50
2019-01-24T22:38:53.093Z,78.60
2019-01-24T22:41:23.477Z,78.90
2019-01-24T22:43:53.793Z,78.40
2019-01-24T22:46:24.152Z,78.10
2019-01-24T22:48:54.531Z,78.40
2019-01-24T22:51:24.976Z,78.00
2019-01-24T22:53:55.355Z,78.30
2019-01-24T22:56:25.657Z,78.70
2019-01-24T22:58:56.005Z,78.20
2019-01-24T23:01:50.557Z,77.90
2019-01-24T23:04:23.005Z,77.70
2019-01-24T23:06:55.025Z,77.30
2019-01-24T23:09:25.361Z,77.10
2019-01-24T23:11:55.769Z,77.70
2019-01-24T23:14:26.130Z,78.20
2019-01-24T23:16:57.411Z,78.40
2019-01-24T23:19:27.765Z,78.30
2019-01-24T23:21:58.105Z,78.20
2019-01-24T23:24:28.492Z,78.30
2019-01-24T23:26:58.933Z,78.40
2019-01-24T23:29:29.237Z,78.50
2019-01-24T23:31:59.602Z,77.90
2019-01-24T23:34:29.967Z,77.70
2019-01-24T23:37:00.298Z,77.20
2019-01-24T23:39:31.981Z,77.10
2019-01-24T23:42:02.777Z,77.20
2019-01-24T23:44:33.149Z,76.80
2019-01-24T23:47:03.512Z,76.50
2019-01-24T23:49:33.865Z,77.10
2019-01-24T23:52:04.313Z,77.00
2019-01-24T23:54:34.721Z,77.40
2019-01-24T23:57:05.189Z,78.20
2019-01-24T23:59:35.845Z,77.40
